createdAt,value
2018-04-25T00:01:30.616Z,1.70
2018-04-25T00:03:58.259Z,2.20
2018-04-25T00:06:25.862Z,1.77
2018-04-25T00:08:53.522Z,1.60
2018-04-25T00:11:21.186Z,2.30
2018-04-25T00:13:48.828Z,2.70
2018-04-25T00:16:16.463Z,1.93
2018-04-25T00:18:44.881Z,1.33
2018-04-25T00:21:12.500Z,2.00
2018-04-25T00:23:40.143Z,1.90
2018-04-25T00:26:07.759Z,3.00
2018-04-25T00:28:35.407Z,2.63
2018-04-25T00:31:03.025Z,2.10
2018-04-25T00:33:30.706Z,1.70
2018-04-25T00:35:58.325Z,2.87
2018-04-25T00:38:25.961Z,2.10
2018-04-25T00:40:53.599Z,1.70
2018-04-25T00:43:21.249Z,3.60
2018-04-25T00:45:48.930Z,2.50
2018-04-25T00:48:16.556Z,1.80
2018-04-25T00:50:44.166Z,1.67
2018-04-25T00:53:11.811Z,1.70
2018-04-25T00:55:39.416Z,2.10
2018-04-25T00:58:07.070Z,2.40
2018-04-25T01:00:34.674Z,2.57
2018-04-25T01:03:02.332Z,3.43
2018-04-25T01:05:29.979Z,2.00
2018-04-25T01:07:57.627Z,1.90
2018-04-25T01:10:25.262Z,2.20
2018-04-25T01:12:52.914Z,1.50
2018-04-25T01:15:20.514Z,1.93
2018-04-25T01:17:48.191Z,2.40
2018-04-25T01:20:16.721Z,2.23
2018-04-25T01:22:44.443Z,1.87
2018-04-25T01:25:20.708Z,1.90
2018-04-25T01:27:54.251Z,1.83
2018-04-25T01:30:23.829Z,2.77
2018-04-25T01:32:51.520Z,2.00
2018-04-25T01:35:19.187Z,2.30
2018-04-25T01:37:51.663Z,2.33
2018-04-25T01:40:19.276Z,2.63
2018-04-25T01:42:48.840Z,2.07
2018-04-25T01:48:19.563Z,2.30
2018-04-25T01:50:47.266Z,2.57
2018-04-25T01:53:26.866Z,1.57
2018-04-25T01:56:06.511Z,2.40
2018-04-25T01:58:45.944Z,2.23
2018-04-25T02:01:20.015Z,3.13
2018-04-25T02:03:56.329Z,3.67
2018-04-25T02:06:23.935Z,2.53
2018-04-25T02:08:51.588Z,2.03
2018-04-25T02:11:19.228Z,2.40
2018-04-25T02:13:46.875Z,4.33
2018-04-25T02:16:14.474Z,2.10
2018-04-25T02:18:42.119Z,2.13
2018-04-25T02:21:09.725Z,3.97
2018-04-25T02:23:37.367Z,3.07
2018-04-25T02:26:04.973Z,2.73
2018-04-25T02:28:32.616Z,2.67
2018-04-25T02:31:00.219Z,3.43
2018-04-25T02:33:27.874Z,2.93
2018-04-25T02:35:55.466Z,1.73
2018-04-25T02:38:23.119Z,2.30
2018-04-25T02:40:50.730Z,3.17
2018-04-25T02:43:18.375Z,2.53
2018-04-25T02:45:45.976Z,2.30
2018-04-25T02:48:13.618Z,2.80
2018-04-25T02:50:41.213Z,2.00
2018-04-25T02:53:08.946Z,2.60
2018-04-25T02:55:36.551Z,2.53
2018-04-25T02:58:04.195Z,3.53
2018-04-25T03:00:31.843Z,2.30
2018-04-25T03:02:59.460Z,2.90
2018-04-25T03:05:27.125Z,2.47
2018-04-25T03:07:54.729Z,2.07
2018-04-25T03:10:22.367Z,2.97
2018-04-25T03:12:49.968Z,3.07
2018-04-25T03:15:17.606Z,2.53
2018-04-25T03:17:45.207Z,3.00
2018-04-25T03:20:12.855Z,2.27
2018-04-25T03:22:40.543Z,2.80
2018-04-25T03:25:08.140Z,2.37
2018-04-25T03:27:35.739Z,3.47
2018-04-25T03:30:03.383Z,2.80
2018-04-25T03:32:30.984Z,2.90
2018-04-25T03:34:58.636Z,2.07
2018-04-25T03:37:26.243Z,2.47
2018-04-25T03:39:53.879Z,3.07
2018-04-25T03:42:21.493Z,2.53
2018-04-25T03:44:49.131Z,2.00
2018-04-25T03:47:16.738Z,2.23
2018-04-25T03:49:44.390Z,2.70
2018-04-25T03:52:11.998Z,2.60
2018-04-25T03:54:39.638Z,3.20
2018-04-25T03:57:07.240Z,2.53
2018-04-25T03:59:34.879Z,3.03
2018-04-25T04:02:02.485Z,2.53
2018-04-25T04:04:30.128Z,2.23
2018-04-25T04:06:57.771Z,2.83
2018-04-25T04:09:25.424Z,2.23
2018-04-25T04:11:53.035Z,2.63
2018-04-25T04:14:20.679Z,3.00
2018-04-25T04:16:48.307Z,2.50
2018-04-25T04:19:15.960Z,2.50
2018-04-25T04:21:43.567Z,2.83
2018-04-25T04:24:11.215Z,2.57
2018-04-25T04:26:38.815Z,3.23
2018-04-25T04:29:06.462Z,3.43
2018-04-25T04:31:34.063Z,3.10
2018-04-25T04:34:01.711Z,3.87
2018-04-25T04:36:29.326Z,3.30
2018-04-25T04:38:56.988Z,2.93
2018-04-25T04:41:24.582Z,2.83
2018-04-25T04:43:52.223Z,3.10
2018-04-25T04:46:19.847Z,4.30
2018-04-25T04:48:47.487Z,3.20
2018-04-25T04:51:15.093Z,3.27
2018-04-25T04:53:42.743Z,3.10
2018-04-25T04:56:10.350Z,3.73
2018-04-25T04:58:37.998Z,2.43
2018-04-25T05:01:05.731Z,3.03
2018-04-25T05:03:33.291Z,4.13
2018-04-25T05:06:00.944Z,5.33
2018-04-25T05:08:28.682Z,3.13
2018-04-25T05:10:56.260Z,3.23
2018-04-25T05:13:23.905Z,3.30
2018-04-25T05:15:51.631Z,4.00
2018-04-25T05:18:19.240Z,3.90
2018-04-25T05:20:46.895Z,3.60
2018-04-25T05:23:14.499Z,3.30
2018-04-25T05:25:42.159Z,4.17
2018-04-25T05:28:09.779Z,4.10
2018-04-25T05:30:37.427Z,5.13
2018-04-25T05:33:05.031Z,3.83
2018-04-25T05:35:32.698Z,3.37
2018-04-25T05:38:00.298Z,2.90
2018-04-25T05:40:27.938Z,6.03
2018-04-25T05:42:55.555Z,5.50
2018-04-25T05:45:23.229Z,4.67
2018-04-25T05:47:50.860Z,3.07
2018-04-25T05:50:18.512Z,3.43
2018-04-25T05:52:46.154Z,3.40
2018-04-25T05:55:13.799Z,3.77
2018-04-25T05:57:41.419Z,5.37
2018-04-25T06:00:09.082Z,3.97
2018-04-25T06:02:36.745Z,4.00
2018-04-25T06:05:04.400Z,4.30
2018-04-25T06:07:32.011Z,3.57
2018-04-25T06:09:59.660Z,3.70
2018-04-25T06:12:27.389Z,3.90
2018-04-25T06:14:55.068Z,4.83
2018-04-25T06:17:22.691Z,3.43
2018-04-25T06:19:50.337Z,3.03
2018-04-25T06:22:17.958Z,3.77
2018-04-25T06:24:45.598Z,3.90
2018-04-25T06:27:13.208Z,4.97
2018-04-25T06:29:40.903Z,3.83
2018-04-25T06:32:08.551Z,3.80
2018-04-25T06:34:36.267Z,3.30
2018-04-25T06:37:03.931Z,3.83
2018-04-25T06:39:31.655Z,3.53
2018-04-25T06:41:59.249Z,3.70
2018-04-25T06:44:26.926Z,3.80
2018-04-25T06:46:54.531Z,3.00
2018-04-25T06:49:22.199Z,3.37
2018-04-25T06:51:49.806Z,7.27
2018-04-25T06:54:17.446Z,3.47
2018-04-25T06:56:45.064Z,3.30
2018-04-25T06:59:12.713Z,3.53
2018-04-25T07:01:40.315Z,3.60
2018-04-25T07:04:08.423Z,3.17
2018-04-25T07:06:36.027Z,4.80
2018-04-25T07:09:03.766Z,4.80
2018-04-25T07:11:31.478Z,3.50
2018-04-25T07:13:59.086Z,2.60
2018-04-25T07:16:26.737Z,4.07
2018-04-25T07:18:54.343Z,3.77
2018-04-25T07:21:21.992Z,4.53
2018-04-25T07:23:49.628Z,4.30
2018-04-25T07:26:17.288Z,4.60
2018-04-25T07:28:44.896Z,4.07
2018-04-25T07:31:12.557Z,3.50
2018-04-25T07:33:40.171Z,3.80
2018-04-25T07:36:07.818Z,3.27
2018-04-25T07:38:35.453Z,3.80
2018-04-25T07:41:03.106Z,3.43
2018-04-25T07:43:30.707Z,3.20
2018-04-25T07:45:58.372Z,2.83
2018-04-25T07:48:26.016Z,3.57
2018-04-25T07:50:53.689Z,3.00
2018-04-25T07:53:21.334Z,4.10
2018-04-25T07:55:48.982Z,5.67
2018-04-25T07:58:16.603Z,3.87
2018-04-25T08:00:44.245Z,3.20
2018-04-25T08:03:11.859Z,3.57
2018-04-25T08:05:39.518Z,3.93
2018-04-25T08:08:07.121Z,4.40
2018-04-25T08:10:34.784Z,4.43
2018-04-25T08:13:14.028Z,5.13
2018-04-25T08:15:53.296Z,4.13
2018-04-25T08:18:32.586Z,3.53
2018-04-25T08:24:02.083Z,4.13
2018-04-25T08:26:29.733Z,4.90
2018-04-25T08:28:57.347Z,4.57
2018-04-25T08:31:24.994Z,4.70
2018-04-25T08:33:52.595Z,3.33
2018-04-25T08:36:20.233Z,3.67
2018-04-25T08:38:47.846Z,4.37
2018-04-25T08:41:15.490Z,4.07
2018-04-25T08:43:43.090Z,3.47
2018-04-25T08:46:10.735Z,2.57
2018-04-25T08:48:38.332Z,3.60
2018-04-25T08:51:05.978Z,3.10
2018-04-25T08:53:33.590Z,3.80
2018-04-25T08:56:01.236Z,3.73
2018-04-25T08:58:28.841Z,3.20
2018-04-25T09:00:56.483Z,3.43
2018-04-25T09:03:24.110Z,2.30
2018-04-25T09:05:51.791Z,2.20
2018-04-25T09:08:19.381Z,2.00
2018-04-25T09:10:47.027Z,3.23
2018-04-25T09:13:14.670Z,2.10
2018-04-25T09:15:42.315Z,2.20
2018-04-25T09:18:09.918Z,2.00
2018-04-25T09:20:37.557Z,2.03
2018-04-25T09:23:05.198Z,2.97
2018-04-25T09:25:32.844Z,2.07
2018-04-25T09:28:00.456Z,2.80
2018-04-25T09:30:28.126Z,1.73
2018-04-25T09:32:55.894Z,1.90
2018-04-25T09:35:23.578Z,1.90
2018-04-25T09:37:51.179Z,1.33
2018-04-25T09:40:18.830Z,2.07
2018-04-25T09:42:46.436Z,2.00
2018-04-25T09:45:14.070Z,2.10
2018-04-25T09:47:41.667Z,2.60
2018-04-25T09:50:09.270Z,1.57
2018-04-25T09:52:36.915Z,0.87
2018-04-25T09:55:04.511Z,1.77
2018-04-25T09:57:32.231Z,1.67
2018-04-25T09:59:59.785Z,2.30
2018-04-25T10:02:33.440Z,1.77
2018-04-25T10:05:01.171Z,1.33
2018-04-25T10:07:28.818Z,1.17
2018-04-25T10:09:56.425Z,1.50
2018-04-25T10:12:24.064Z,2.13
2018-04-25T10:14:51.661Z,3.30
2018-04-25T10:17:19.325Z,2.87
2018-04-25T10:19:46.940Z,3.37
2018-04-25T10:22:14.591Z,3.37
2018-04-25T10:24:42.207Z,4.23
2018-04-25T10:27:09.852Z,2.83
2018-04-25T10:29:37.449Z,2.70
2018-04-25T10:32:05.171Z,2.83
2018-04-25T10:34:32.729Z,2.93
2018-04-25T10:37:00.378Z,2.40
2018-04-25T10:39:27.982Z,1.77
2018-04-25T10:41:55.664Z,2.50
2018-04-25T10:44:23.274Z,3.40
2018-04-25T10:46:50.932Z,1.90
2018-04-25T10:49:18.535Z,2.70
2018-04-25T10:51:46.182Z,1.83
2018-04-25T10:54:13.801Z,2.10
2018-04-25T10:56:41.446Z,1.63
2018-04-25T10:59:09.087Z,1.63
2018-04-25T11:01:36.770Z,2.47
2018-04-25T11:04:04.370Z,2.43
2018-04-25T11:06:32.050Z,3.33
2018-04-25T11:08:59.656Z,3.43
2018-04-25T11:11:27.387Z,2.30
2018-04-25T11:13:54.991Z,2.10
2018-04-25T11:16:22.631Z,2.13
2018-04-25T11:18:50.242Z,2.30
2018-04-25T11:21:17.886Z,2.63
2018-04-25T11:23:45.536Z,2.57
2018-04-25T11:26:13.215Z,2.77
2018-04-25T11:28:40.816Z,3.47
2018-04-25T11:31:08.463Z,2.10
2018-04-25T11:33:36.065Z,2.43
2018-04-25T11:36:03.715Z,2.67
2018-04-25T11:38:31.318Z,2.50
2018-04-25T11:40:58.987Z,2.27
2018-04-25T11:43:26.589Z,2.23
2018-04-25T11:45:54.223Z,2.23
2018-04-25T11:48:21.833Z,2.63
2018-04-25T11:50:49.441Z,1.90
2018-04-25T11:53:17.095Z,1.70
2018-04-25T11:55:44.702Z,2.10
2018-04-25T11:58:12.351Z,1.73
2018-04-25T12:00:39.951Z,2.00
2018-04-25T12:03:07.600Z,1.73
2018-04-25T12:05:35.202Z,2.17
2018-04-25T12:08:02.849Z,1.80
2018-04-25T12:10:30.450Z,1.83
2018-04-25T12:12:58.094Z,2.10
2018-04-25T12:15:25.698Z,1.63
2018-04-25T12:17:53.336Z,1.70
2018-04-25T12:20:20.943Z,2.10
2018-04-25T12:22:48.596Z,2.03
2018-04-25T12:25:16.207Z,2.07
2018-04-25T12:27:43.854Z,1.40
2018-04-25T12:30:11.466Z,1.60
2018-04-25T12:32:39.111Z,1.60
2018-04-25T12:35:06.720Z,0.90
2018-04-25T12:37:34.415Z,1.13
2018-04-25T12:40:02.027Z,1.67
2018-04-25T12:42:29.674Z,1.43
2018-04-25T12:44:57.310Z,0.80
2018-04-25T12:47:24.917Z,0.70
2018-04-25T12:49:52.566Z,1.10
2018-04-25T12:52:20.186Z,0.87
2018-04-25T12:54:47.831Z,1.10
2018-04-25T12:57:15.434Z,1.00
2018-04-25T12:59:43.086Z,1.07
2018-04-25T13:02:10.695Z,0.77
2018-04-25T13:04:38.344Z,0.67
2018-04-25T13:07:05.965Z,0.73
2018-04-25T13:09:33.668Z,0.70
2018-04-25T13:12:01.254Z,0.70
2018-04-25T13:14:28.899Z,0.60
2018-04-25T13:16:56.506Z,0.70
2018-04-25T13:19:24.142Z,0.87
2018-04-25T13:21:51.742Z,0.90
2018-04-25T13:24:19.399Z,0.63
2018-04-25T13:26:47.014Z,0.73
2018-04-25T13:29:14.711Z,1.10
2018-04-25T13:31:42.315Z,0.87
2018-04-25T13:34:09.959Z,1.00
2018-04-25T13:36:37.555Z,1.07
2018-04-25T13:39:05.272Z,0.90
2018-04-25T13:41:32.869Z,1.23
2018-04-25T13:44:00.523Z,0.80
2018-04-25T13:46:28.192Z,1.33
2018-04-25T13:48:55.802Z,1.00
2018-04-25T13:51:23.452Z,1.00
2018-04-25T13:53:51.055Z,0.97
2018-04-25T13:56:18.695Z,1.13
2018-04-25T13:58:46.294Z,2.60
2018-04-25T14:01:13.943Z,0.70
2018-04-25T14:03:41.548Z,1.00
2018-04-25T14:06:09.211Z,0.80
2018-04-25T14:08:36.815Z,0.83
2018-04-25T14:11:04.503Z,0.80
2018-04-25T14:13:32.154Z,1.20
2018-04-25T14:15:59.799Z,0.93
2018-04-25T14:18:27.399Z,1.03
2018-04-25T14:20:55.043Z,1.43
2018-04-25T14:23:22.655Z,1.57
2018-04-25T14:25:50.303Z,1.10
2018-04-25T14:28:17.903Z,0.80
2018-04-25T14:30:45.567Z,0.77
2018-04-25T14:33:13.184Z,0.87
2018-04-25T14:35:40.818Z,0.93
2018-04-25T14:38:08.478Z,1.33
2018-04-25T14:40:36.080Z,1.10
2018-04-25T14:43:04.319Z,0.80
2018-04-25T14:45:31.957Z,1.20
2018-04-25T14:47:59.604Z,1.20
2018-04-25T14:50:27.216Z,1.20
2018-04-25T14:52:54.884Z,1.27
2018-04-25T14:55:22.541Z,1.07
2018-04-25T14:57:50.186Z,1.10
2018-04-25T15:00:17.834Z,1.57
2018-04-25T15:02:45.477Z,1.43
2018-04-25T15:05:13.081Z,1.20
2018-04-25T15:07:40.727Z,1.20
2018-04-25T15:10:08.353Z,1.27
2018-04-25T15:12:36.001Z,1.70
2018-04-25T15:15:03.608Z,1.20
2018-04-25T15:17:31.255Z,1.07
2018-04-25T15:19:58.882Z,1.40
2018-04-25T15:22:26.556Z,1.30
2018-04-25T15:24:54.166Z,1.30
2018-04-25T15:27:21.811Z,1.00
2018-04-25T15:29:49.452Z,1.47
2018-04-25T15:32:17.102Z,1.23
2018-04-25T15:34:44.855Z,1.03
2018-04-25T15:37:12.511Z,1.43
2018-04-25T15:39:40.137Z,0.70
2018-04-25T15:42:07.779Z,1.40
2018-04-25T15:44:35.378Z,0.90
2018-04-25T15:47:03.058Z,1.37
2018-04-25T15:49:30.708Z,1.03
2018-04-25T15:51:58.348Z,1.10
2018-04-25T15:54:25.943Z,1.20
2018-04-25T15:56:53.593Z,1.10
2018-04-25T15:59:21.199Z,1.10
2018-04-25T16:01:48.851Z,0.87
2018-04-25T16:04:16.449Z,1.37
2018-04-25T16:06:44.091Z,0.97
2018-04-25T16:09:11.690Z,1.03
2018-04-25T16:11:39.330Z,0.90
2018-04-25T16:14:06.984Z,1.10
2018-04-25T16:16:34.596Z,0.73
2018-04-25T16:19:02.250Z,0.70
2018-04-25T16:21:29.850Z,1.53
2018-04-25T16:23:57.501Z,0.90
2018-04-25T16:26:25.102Z,0.70
2018-04-25T16:28:52.742Z,1.00
2018-04-25T16:31:20.422Z,0.83
2018-04-25T16:33:48.010Z,0.73
2018-04-25T16:36:15.638Z,0.83
2018-04-25T16:38:43.276Z,0.60
2018-04-25T16:41:10.913Z,1.87
2018-04-25T16:43:38.554Z,0.80
2018-04-25T16:46:06.159Z,1.47
2018-04-25T16:48:33.817Z,1.00
2018-04-25T16:51:01.420Z,1.10
2018-04-25T16:53:29.070Z,0.90
2018-04-25T16:55:56.672Z,0.87
2018-04-25T16:58:24.315Z,0.60
2018-04-25T17:00:51.940Z,0.67
2018-04-25T17:03:19.624Z,0.70
2018-04-25T17:05:47.230Z,0.50
2018-04-25T17:08:14.872Z,0.60
2018-04-25T17:10:42.478Z,0.53
2018-04-25T17:13:10.123Z,0.60
2018-04-25T17:15:37.727Z,1.30
2018-04-25T17:18:05.374Z,0.90
2018-04-25T17:20:32.976Z,0.70
2018-04-25T17:23:00.707Z,0.57
2018-04-25T17:25:28.294Z,0.57
2018-04-25T17:27:55.926Z,0.63
2018-04-25T17:30:23.529Z,0.50
2018-04-25T17:32:51.337Z,0.50
2018-04-25T17:35:18.934Z,0.50
2018-04-25T17:37:46.578Z,0.90
2018-04-25T17:40:14.356Z,0.63
2018-04-25T17:42:42.192Z,0.53
2018-04-25T17:45:09.835Z,1.10
2018-04-25T17:47:37.655Z,2.87
2018-04-25T17:50:05.810Z,0.70
2018-04-25T17:52:33.941Z,0.50
2018-04-25T17:55:02.068Z,0.50
2018-04-25T17:57:29.935Z,0.63
2018-04-25T17:59:57.645Z,0.60
2018-04-25T18:02:25.647Z,0.60
2018-04-25T18:04:53.714Z,0.60
2018-04-25T18:07:21.348Z,0.50
2018-04-25T18:09:48.991Z,0.80
2018-04-25T18:12:16.617Z,0.57
2018-04-25T18:14:44.260Z,0.60
2018-04-25T18:17:11.981Z,0.53
2018-04-25T18:19:39.574Z,0.97
2018-04-25T18:22:07.170Z,0.50
2018-04-25T18:24:34.810Z,0.80
2018-04-25T18:27:02.410Z,0.83
2018-04-25T18:29:30.067Z,0.50
2018-04-25T18:31:57.672Z,1.67
2018-04-25T18:34:25.332Z,0.60
2018-04-25T18:36:52.943Z,1.00
2018-04-25T18:39:20.623Z,0.60
2018-04-25T18:41:48.230Z,0.63
2018-04-25T18:44:15.878Z,0.50
2018-04-25T18:46:43.488Z,0.70
2018-04-25T18:49:11.140Z,0.77
2018-04-25T18:51:38.743Z,1.37
2018-04-25T18:54:06.387Z,0.83
2018-04-25T18:56:33.992Z,0.57
2018-04-25T18:59:01.704Z,0.70
2018-04-25T19:01:29.310Z,1.07
2018-04-25T19:03:56.958Z,1.10
2018-04-25T19:06:24.564Z,1.13
2018-04-25T19:08:52.212Z,0.70
2018-04-25T19:11:19.823Z,0.77
2018-04-25T19:13:47.467Z,0.60
2018-04-25T19:16:15.076Z,0.70
2018-04-25T19:18:42.734Z,0.90
2018-04-25T19:21:10.339Z,1.13
2018-04-25T19:23:37.982Z,0.80
2018-04-25T19:26:05.644Z,0.57
2018-04-25T19:28:33.298Z,0.90
2018-04-25T19:31:00.908Z,0.73
2018-04-25T19:33:28.579Z,0.70
2018-04-25T19:35:56.187Z,0.93
2018-04-25T19:38:23.830Z,0.80
2018-04-25T19:40:51.436Z,0.53
2018-04-25T19:43:19.087Z,0.70
2018-04-25T19:45:46.698Z,0.60
2018-04-25T19:48:14.342Z,1.03
2018-04-25T19:50:41.954Z,0.77
2018-04-25T19:53:09.598Z,1.00
2018-04-25T19:55:37.231Z,1.60
2018-04-25T19:58:04.887Z,0.70
2018-04-25T20:00:32.489Z,1.00
2018-04-25T20:03:00.166Z,1.07
2018-04-25T20:05:27.811Z,1.13
2018-04-25T20:07:55.426Z,0.70
2018-04-25T20:10:23.226Z,1.00
2018-04-25T20:12:50.831Z,0.80
2018-04-25T20:15:18.475Z,0.67
2018-04-25T20:17:46.080Z,1.60
2018-04-25T20:20:13.821Z,0.80
2018-04-25T20:22:41.374Z,0.60
2018-04-25T20:25:09.026Z,1.47
2018-04-25T20:27:36.631Z,0.60
2018-04-25T20:30:04.286Z,0.60
2018-04-25T20:32:31.889Z,0.60
2018-04-25T20:34:59.536Z,0.70
2018-04-25T20:37:27.162Z,0.70
2018-04-25T20:39:54.814Z,0.80
2018-04-25T20:42:22.419Z,1.13
2018-04-25T20:44:50.063Z,0.80
2018-04-25T20:47:17.675Z,1.00
2018-04-25T20:49:45.346Z,0.60
2018-04-25T20:52:12.959Z,0.60
2018-04-25T20:54:40.604Z,0.80
2018-04-25T20:57:08.212Z,0.80
2018-04-25T20:59:35.867Z,1.63
2018-04-25T21:02:03.471Z,1.40
2018-04-25T21:04:31.124Z,1.43
2018-04-25T21:06:58.733Z,0.60
2018-04-25T21:09:26.379Z,1.03
2018-04-25T21:11:53.980Z,0.93
2018-04-25T21:14:21.628Z,0.70
2018-04-25T21:16:49.234Z,0.60
2018-04-25T21:19:16.906Z,1.00
2018-04-25T21:21:44.515Z,0.87
2018-04-25T21:24:12.171Z,2.67
2018-04-25T21:26:39.780Z,0.73
2018-04-25T21:29:07.431Z,0.70
2018-04-25T21:31:35.031Z,0.50
2018-04-25T21:34:02.685Z,0.67
2018-04-25T21:36:30.295Z,1.00
2018-04-25T21:38:57.955Z,0.90
2018-04-25T21:41:25.574Z,0.80
2018-04-25T21:43:53.225Z,0.60
2018-04-25T21:46:20.847Z,0.67
2018-04-25T21:48:48.507Z,0.80
2018-04-25T21:51:16.176Z,1.97
2018-04-25T21:53:43.817Z,1.00
2018-04-25T21:56:11.427Z,1.17
2018-04-25T21:58:39.083Z,0.83
2018-04-25T22:01:06.703Z,0.90
2018-04-25T22:03:34.349Z,1.80
2018-04-25T22:06:01.950Z,0.70
2018-04-25T22:08:29.594Z,0.73
2018-04-25T22:10:57.245Z,1.23
2018-04-25T22:13:24.912Z,0.60
2018-04-25T22:15:52.588Z,1.53
2018-04-25T22:18:20.206Z,1.10
2018-04-25T22:20:47.854Z,0.50
2018-04-25T22:23:15.465Z,0.50
2018-04-25T22:25:43.114Z,0.70
2018-04-25T22:28:10.727Z,0.70
2018-04-25T22:30:38.380Z,0.70
2018-04-25T22:33:05.999Z,0.60
2018-04-25T22:35:33.669Z,0.80
2018-04-25T22:38:01.312Z,0.73
2018-04-25T22:40:28.995Z,1.00
2018-04-25T22:42:56.649Z,0.50
2018-04-25T22:45:24.307Z,1.40
2018-04-25T22:47:51.919Z,0.70
2018-04-25T22:50:19.567Z,0.77
2018-04-25T22:52:47.174Z,1.17
2018-04-25T22:55:14.833Z,0.80
2018-04-25T22:57:42.444Z,0.77
2018-04-25T23:00:10.215Z,0.60
2018-04-25T23:02:37.867Z,0.60
2018-04-25T23:05:05.511Z,0.60
2018-04-25T23:07:33.135Z,0.60
2018-04-25T23:10:00.804Z,0.60
2018-04-25T23:12:28.419Z,3.13
2018-04-25T23:14:56.064Z,0.90
2018-04-25T23:17:23.727Z,0.50
2018-04-25T23:19:51.412Z,0.60
2018-04-25T23:22:19.019Z,0.90
2018-04-25T23:24:46.685Z,0.97
2018-04-25T23:27:14.318Z,0.60
2018-04-25T23:29:41.967Z,0.40
2018-04-25T23:32:09.575Z,0.50
2018-04-25T23:34:37.222Z,0.60
2018-04-25T23:37:04.830Z,0.60
2018-04-25T23:39:32.506Z,0.50
2018-04-25T23:42:00.112Z,0.60
2018-04-25T23:44:27.764Z,0.60
2018-04-25T23:46:55.370Z,0.50
2018-04-25T23:49:23.014Z,1.07
2018-04-25T23:51:50.620Z,0.50
2018-04-25T23:54:18.271Z,0.80
2018-04-25T23:56:45.882Z,0.60
2018-04-25T23:59:13.524Z,0.47
